Time;durP1;ratioP1;P1;durP2;ratioP2;P2;SDS_P1;SDS_P2;PMS_P1;PMS_P2;Temp;Humidity;BMP_temperature;BMP_pressure;BME280_temperature;BME280_humidity;BME280_pressure;Samples;Min_cycle;Max_cycle;Signal;HPM_P1;HPM_P2
2021/12/04 00:01:10;;;;;;;0.08;0.08;;;4.80;99.90;;;;;;5095758;28;20506;-79
2021/12/04 00:03:40;;;;;;;0.65;0.10;;;4.80;99.90;;;;;;5095880;28;20062;-80
2021/12/04 00:06:13;;;;;;;0.13;0.00;;;4.90;99.90;;;;;;5096772;28;20130;-79
2021/12/04 00:08:43;;;;;;;0.55;0.10;;;4.90;99.90;;;;;;5113057;28;20086;-79
2021/12/04 00:11:09;;;;;;;0.00;0.00;;;4.90;99.90;;;;;;5113105;28;20047;-79
2021/12/04 00:13:34;;;;;;;0.08;0.08;;;4.80;99.90;;;;;;5095963;28;20100;-79
2021/12/04 00:16:00;;;;;;;0.00;0.00;;;4.80;99.90;;;;;;5112872;28;20044;-79
2021/12/04 00:18:26;;;;;;;0.10;0.10;;;4.80;99.90;;;;;;5095777;28;20040;-79
2021/12/04 00:20:52;;;;;;;0.10;0.10;;;4.80;99.90;;;;;;5112977;28;20044;-79
2021/12/04 00:23:17;;;;;;;2.83;0.80;;;4.80;99.90;;;;;;5095894;28;20050;-79
2021/12/04 00:25:43;;;;;;;0.00;0.00;;;4.80;99.90;;;;;;5096006;28;20391;-79
2021/12/04 00:28:08;;;;;;;0.80;0.47;;;4.80;99.90;;;;;;5113092;28;20130;-79
2021/12/04 00:30:35;;;;;;;0.40;0.40;;;4.80;99.90;;;;;;5113101;28;20110;-79
2021/12/04 00:33:08;;;;;;;0.05;0.05;;;4.80;99.90;;;;;;5113161;28;20040;-79
2021/12/04 00:35:41;;;;;;;0.45;0.22;;;4.80;99.90;;;;;;5113094;28;20457;-79
2021/12/04 00:49:13;;;;;;;0.17;0.13;;;4.90;99.90;;;;;;5117012;28;20052;-79
2021/12/04 00:51:42;;;;;;;0.28;0.15;;;4.90;99.90;;;;;;5099944;28;20087;-79
2021/12/04 00:54:10;;;;;;;0.00;0.00;;;4.80;99.90;;;;;;5099701;28;20121;-79
2021/12/04 00:56:37;;;;;;;0.00;0.00;;;4.80;99.90;;;;;;5100326;28;20100;-79
2021/12/04 00:59:04;;;;;;;0.08;0.08;;;4.80;99.90;;;;;;5099309;28;20046;-79
2021/12/04 01:01:30;;;;;;;0.10;0.10;;;4.80;99.90;;;;;;5098979;28;20052;-79
2021/12/04 01:03:55;;;;;;;0.35;0.35;;;4.90;99.90;;;;;;5116162;28;20044;-79
2021/12/04 01:06:22;;;;;;;0.00;0.00;;;4.90;99.90;;;;;;5116064;28;20456;-79
2021/12/04 01:08:47;;;;;;;0.10;0.10;;;4.90;99.90;;;;;;5099215;28;20048;-79
2021/12/04 01:11:13;;;;;;;0.00;0.00;;;4.90;99.90;;;;;;5099191;28;20138;-79
2021/12/04 01:13:39;;;;;;;0.00;0.00;;;4.80;99.90;;;;;;5099195;28;20105;-79
2021/12/04 01:16:05;;;;;;;0.10;0.00;;;4.80;99.90;;;;;;5116227;28;20435;-79
2021/12/04 01:18:31;;;;;;;0.00;0.00;;;4.80;99.90;;;;;;5115622;28;20096;-79
2021/12/04 01:20:57;;;;;;;0.03;0.03;;;4.80;99.90;;;;;;5098940;28;20083;-79
2021/12/04 01:23:24;;;;;;;0.43;0.30;;;4.80;99.90;;;;;;5098742;28;20059;-79
2021/12/04 01:25:50;;;;;;;0.00;0.00;;;5.00;99.90;;;;;;5099205;28;20069;-79
2021/12/04 01:28:16;;;;;;;0.00;0.00;;;4.80;99.90;;;;;;5115329;28;20130;-79
2021/12/04 01:30:41;;;;;;;0.10;0.05;;;4.90;99.90;;;;;;5098901;28;20058;-79
2021/12/04 01:33:07;;;;;;;0.10;0.10;;;4.90;99.90;;;;;;5115606;28;20047;-79
2021/12/04 01:35:33;;;;;;;0.00;0.00;;;4.80;99.90;;;;;;5115612;28;20411;-79
2021/12/04 01:37:58;;;;;;;0.00;0.00;;;4.80;99.90;;;;;;5098275;28;20138;-79
2021/12/04 01:40:26;;;;;;;0.00;0.00;;;4.80;99.90;;;;;;5098701;28;20090;-79
2021/12/04 01:42:52;;;;;;;0.05;0.00;;;4.90;99.90;;;;;;5098988;28;20100;-79
2021/12/04 01:45:18;;;;;;;0.08;0.00;;;4.80;99.90;;;;;;5098420;28;20084;-79
2021/12/04 01:47:44;;;;;;;0.10;0.05;;;4.80;99.90;;;;;;5098255;28;20054;-78
2021/12/04 01:50:10;;;;;;;0.00;0.00;;;4.80;99.90;;;;;;5098559;28;20040;-78
2021/12/04 01:52:36;;;;;;;0.05;0.05;;;4.70;99.90;;;;;;5115859;28;20391;-78
2021/12/04 01:55:04;;;;;;;0.00;0.00;;;4.80;99.90;;;;;;5098125;28;20059;-78
2021/12/04 01:57:31;;;;;;;0.00;0.00;;;4.80;99.90;;;;;;5098058;28;20490;-78
2021/12/04 01:59:57;;;;;;;0.00;0.00;;;4.80;99.90;;;;;;5098293;28;20051;-78
2021/12/04 02:02:22;;;;;;;8.85;0.73;;;4.80;99.90;;;;;;5114777;28;20046;-78
2021/12/04 02:04:48;;;;;;;0.15;0.03;;;4.80;99.90;;;;;;5097937;28;20055;-78
2021/12/04 02:07:15;;;;;;;0.10;0.10;;;4.80;99.90;;;;;;5098029;28;20048;-78
2021/12/04 02:09:41;;;;;;;0.03;0.00;;;4.80;99.90;;;;;;5115329;28;20051;-78
2021/12/04 02:12:09;;;;;;;0.20;0.20;;;4.80;99.90;;;;;;5114919;28;20415;-78
2021/12/04 02:14:36;;;;;;;0.00;0.00;;;4.80;99.90;;;;;;5097733;28;20059;-78
2021/12/04 02:17:03;;;;;;;1.80;0.10;;;4.80;99.90;;;;;;5098191;28;20181;-78
2021/12/04 02:19:29;;;;;;;0.00;0.00;;;4.80;99.90;;;;;;5114997;28;20043;-78
2021/12/04 02:21:55;;;;;;;0.20;0.10;;;4.80;99.90;;;;;;5097934;28;20128;-78
2021/12/04 02:24:20;;;;;;;0.00;0.00;;;4.80;99.90;;;;;;5114695;28;20039;-78
2021/12/04 02:26:47;;;;;;;0.00;0.00;;;4.80;99.90;;;;;;5097737;28;20541;-78
2021/12/04 02:29:13;;;;;;;0.08;0.08;;;4.70;99.90;;;;;;5096917;28;20456;-78
2021/12/04 02:31:39;;;;;;;0.00;0.00;;;4.70;99.90;;;;;;5097465;28;20051;-79
2021/12/04 02:34:06;;;;;;;0.00;0.00;;;4.70;99.90;;;;;;5114481;28;20043;-78
2021/12/04 02:36:32;;;;;;;0.08;0.08;;;4.70;99.90;;;;;;5114415;28;20094;-78
2021/12/04 02:38:57;;;;;;;0.20;0.20;;;4.70;99.90;;;;;;5096633;28;20097;-78
2021/12/04 02:41:23;;;;;;;0.00;0.00;;;4.70;99.90;;;;;;5097583;28;20051;-78
2021/12/04 02:43:50;;;;;;;0.22;0.20;;;4.70;99.90;;;;;;5114296;28;20048;-78
2021/12/04 02:46:17;;;;;;;0.55;0.55;;;4.70;99.90;;;;;;5097122;28;20051;-78
2021/12/04 02:48:44;;;;;;;0.52;0.52;;;4.70;99.90;;;;;;5114751;28;20504;-78
2021/12/04 02:51:10;;;;;;;0.00;0.00;;;4.70;99.90;;;;;;5114406;28;20111;-78
2021/12/04 02:53:37;;;;;;;0.98;0.20;;;4.70;99.90;;;;;;5114873;28;20538;-79
2021/12/04 02:56:04;;;;;;;0.00;0.00;;;4.70;99.90;;;;;;5097296;28;20085;-79
2021/12/04 02:58:32;;;;;;;0.00;0.00;;;4.70;99.90;;;;;;5096824;28;20043;-79
2021/12/04 03:00:58;;;;;;;0.15;0.00;;;4.70;99.90;;;;;;5097205;28;20055;-79
2021/12/04 03:03:24;;;;;;;0.00;0.00;;;4.70;99.90;;;;;;5113584;28;20441;-79
2021/12/04 03:05:51;;;;;;;0.10;0.00;;;4.70;99.90;;;;;;5114000;28;20482;-79
2021/12/04 03:08:18;;;;;;;0.00;0.00;;;4.70;99.90;;;;;;5096807;28;20055;-79
2021/12/04 03:10:44;;;;;;;0.00;0.00;;;4.70;99.90;;;;;;5096833;28;20047;-79
2021/12/04 03:13:10;;;;;;;0.00;0.00;;;4.70;99.90;;;;;;5096740;28;20051;-79
2021/12/04 03:15:43;;;;;;;0.55;0.38;;;4.70;99.90;;;;;;5114346;28;20089;-79
2021/12/04 03:18:09;;;;;;;0.00;0.00;;;4.70;99.90;;;;;;5113768;28;20036;-79
2021/12/04 03:20:42;;;;;;;0.00;0.00;;;4.60;99.90;;;;;;5097223;28;20043;-79
2021/12/04 03:23:16;;;;;;;0.00;0.00;;;4.80;99.90;;;;;;5114065;28;20044;-79
2021/12/04 03:25:45;;;;;;;0.00;0.00;;;4.70;99.90;;;;;;5114277;28;20086;-79
2021/12/04 03:28:13;;;;;;;0.10;0.10;;;4.70;99.90;;;;;;5097387;28;20047;-79
2021/12/04 03:41:19;;;;;;;0.00;0.00;;;4.70;99.90;;;;;;5075982;28;20457;-79
2021/12/04 03:43:45;;;;;;;0.00;0.00;;;4.80;99.90;;;;;;5075638;28;20175;-79
2021/12/04 03:46:14;;;;;;;0.20;0.20;;;4.70;99.90;;;;;;5059120;28;20044;-79
2021/12/04 03:51:09;;;;;;;0.00;0.00;;;4.70;99.90;;;;;;5075548;28;20040;-79
2021/12/04 03:53:35;;;;;;;0.00;0.00;;;4.70;99.90;;;;;;5075502;28;20118;-79
2021/12/04 03:56:01;;;;;;;0.35;0.10;;;4.70;99.90;;;;;;5058096;28;20060;-79
2021/12/04 03:58:27;;;;;;;0.08;0.00;;;4.70;99.90;;;;;;5058102;28;20087;-79
2021/12/04 04:00:53;;;;;;;0.30;0.10;;;4.70;99.90;;;;;;5074918;28;20129;-79
2021/12/04 04:03:18;;;;;;;0.52;0.20;;;4.70;99.90;;;;;;5058270;28;20052;-79
2021/12/04 04:05:44;;;;;;;0.00;0.00;;;4.70;99.90;;;;;;5075361;28;20110;-79
2021/12/04 04:08:12;;;;;;;0.00;0.00;;;4.70;99.90;;;;;;5075375;28;20044;-79
2021/12/04 04:10:37;;;;;;;0.90;0.20;;;4.70;99.90;;;;;;5078149;28;20063;-79
2021/12/04 04:13:03;;;;;;;0.38;0.10;;;4.70;99.90;;;;;;5096566;28;20058;-79
2021/12/04 04:15:29;;;;;;;0.00;0.00;;;4.70;99.90;;;;;;5097493;28;20061;-80
2021/12/04 04:17:55;;;;;;;0.00;0.00;;;4.70;99.90;;;;;;5100107;28;20395;-79
2021/12/04 04:20:21;;;;;;;0.08;0.00;;;4.70;99.90;;;;;;5117560;28;20069;-79
2021/12/04 04:22:49;;;;;;;0.00;0.00;;;4.70;99.90;;;;;;5117095;28;20101;-79
2021/12/04 04:25:16;;;;;;;1.02;0.20;;;4.70;99.90;;;;;;5100697;28;20458;-79
2021/12/04 04:27:43;;;;;;;1.10;0.22;;;4.70;99.90;;;;;;5100108;28;20047;-79
2021/12/04 04:30:15;;;;;;;0.15;0.00;;;4.70;99.90;;;;;;5117368;28;20558;-79
2021/12/04 04:32:41;;;;;;;0.00;0.00;;;4.70;99.90;;;;;;5101088;28;20051;-79
2021/12/04 04:35:14;;;;;;;2.30;0.10;;;4.80;99.90;;;;;;5099727;28;20070;-79
2021/12/04 04:37:59;;;;;;;0.43;0.10;;;4.70;99.90;;;;;;5099992;28;20065;-79
2021/12/04 05:10:02;;;;;;;0.00;0.00;;;4.70;99.90;;;;;;5078406;28;20052;-79
2021/12/04 05:13:18;;;;;;;0.00;0.00;;;4.70;99.90;;;;;;5078230;28;20082;-79
2021/12/04 05:23:47;;;;;;;0.00;0.00;;;4.70;99.90;;;;;;5077628;28;20052;-79
2021/12/04 05:26:16;;;;;;;0.00;0.00;;;4.70;99.90;;;;;;5077191;28;20101;-79
2021/12/04 05:28:43;;;;;;;0.00;0.00;;;4.80;99.90;;;;;;5076170;28;20056;-78
2021/12/04 05:31:08;;;;;;;0.13;0.10;;;4.70;99.90;;;;;;5076200;28;20040;-79
2021/12/04 05:33:35;;;;;;;0.00;0.00;;;4.70;99.90;;;;;;5076882;28;20553;-79
2021/12/04 05:36:01;;;;;;;0.00;0.00;;;4.70;99.90;;;;;;5059649;28;20388;-78
2021/12/04 05:38:27;;;;;;;0.00;0.00;;;4.70;99.90;;;;;;5059743;28;20051;-79
2021/12/04 05:40:52;;;;;;;0.00;0.00;;;4.70;99.90;;;;;;5059309;28;20096;-79
2021/12/04 05:43:22;;;;;;;0.98;0.10;;;4.70;99.90;;;;;;5059840;28;20056;-78
2021/12/04 05:45:55;;;;;;;0.40;0.00;;;4.70;99.90;;;;;;5075936;28;20051;-78
2021/12/04 05:48:30;;;;;;;0.00;0.00;;;4.70;99.90;;;;;;5076210;28;20096;-78
2021/12/04 05:51:15;;;;;;;0.00;0.00;;;4.70;99.90;;;;;;5076338;28;20391;-79
2021/12/04 05:53:54;;;;;;;0.22;0.00;;;4.70;99.90;;;;;;5059366;28;20173;-79
2021/12/04 05:56:20;;;;;;;0.00;0.00;;;4.70;99.90;;;;;;5059665;28;20044;-79
2021/12/04 05:58:47;;;;;;;0.00;0.00;;;4.70;99.90;;;;;;5059004;28;20047;-79
2021/12/04 06:01:15;;;;;;;0.10;0.10;;;4.70;99.90;;;;;;5113823;28;20070;-78
2021/12/04 06:03:41;;;;;;;0.13;0.10;;;4.70;99.90;;;;;;5096934;28;20060;-78
2021/12/04 06:06:08;;;;;;;0.15;0.00;;;4.70;99.90;;;;;;5113951;28;20044;-79
2021/12/04 06:08:34;;;;;;;0.00;0.00;;;4.70;99.90;;;;;;5096805;28;20479;-79
2021/12/04 06:11:00;;;;;;;0.35;0.25;;;4.60;99.90;;;;;;5096891;28;20503;-79
2021/12/04 06:13:26;;;;;;;0.10;0.10;;;4.60;99.90;;;;;;5114149;28;20032;-79
2021/12/04 06:15:52;;;;;;;0.00;0.00;;;4.70;99.90;;;;;;5114119;28;20046;-79
2021/12/04 06:18:18;;;;;;;0.00;0.00;;;4.70;99.90;;;;;;5113976;28;20039;-78
2021/12/04 06:23:29;;;;;;;0.00;0.00;;;4.70;99.90;;;;;;5114229;28;20062;-79
2021/12/04 06:25:55;;;;;;;0.00;0.00;;;4.70;99.90;;;;;;5096899;28;20096;-78
2021/12/04 06:28:22;;;;;;;0.00;0.00;;;4.70;99.90;;;;;;5074046;28;1130429;-78
2021/12/04 06:30:47;;;;;;;0.00;0.00;;;4.70;99.90;;;;;;5114637;28;20098;-79
2021/12/04 06:33:16;;;;;;;0.30;0.20;;;4.70;99.90;;;;;;5097513;28;20066;-79
2021/12/04 06:35:42;;;;;;;0.00;0.00;;;4.70;99.90;;;;;;5115048;28;20085;-78
2021/12/04 06:38:10;;;;;;;0.43;0.20;;;4.70;99.90;;;;;;5096651;28;20071;-79
2021/12/04 06:40:37;;;;;;;0.20;0.10;;;4.70;99.90;;;;;;5097380;28;20117;-78
2021/12/04 06:43:04;;;;;;;0.00;0.00;;;4.70;99.90;;;;;;5097434;28;20047;-78
2021/12/04 06:45:33;;;;;;;1.08;0.00;;;4.60;99.90;;;;;;5114264;28;20047;-79
2021/12/04 06:48:08;;;;;;;0.00;0.00;;;4.70;99.90;;;;;;5097399;28;20104;-79
2021/12/04 06:50:41;;;;;;;0.20;0.17;;;4.70;99.90;;;;;;5113918;28;20080;-79
2021/12/04 06:53:22;;;;;;;0.00;0.00;;;4.70;99.90;;;;;;5097227;28;20056;-79
2021/12/04 06:55:51;;;;;;;0.03;0.00;;;4.70;99.90;;;;;;5096820;28;20500;-78
2021/12/04 06:58:17;;;;;;;1.00;0.00;;;4.70;99.90;;;;;;5096551;28;20610;-79
2021/12/04 07:00:43;;;;;;;0.00;0.00;;;4.70;99.90;;;;;;5114061;28;20076;-79
2021/12/04 07:03:09;;;;;;;0.10;0.10;;;4.70;99.90;;;;;;5113963;28;20058;-79
2021/12/04 07:05:35;;;;;;;0.25;0.20;;;4.70;99.90;;;;;;5097202;28;20134;-79
2021/12/04 07:08:00;;;;;;;0.00;0.00;;;4.70;99.90;;;;;;5113866;28;20120;-78
2021/12/04 07:10:26;;;;;;;0.00;0.00;;;4.70;99.90;;;;;;5096988;28;20055;-78
2021/12/04 07:12:52;;;;;;;0.00;0.00;;;4.70;99.90;;;;;;5096881;28;20093;-78
2021/12/04 07:15:18;;;;;;;0.00;0.00;;;4.70;99.90;;;;;;5113645;28;20047;-78
2021/12/04 07:17:44;;;;;;;0.10;0.10;;;4.70;99.90;;;;;;5113949;28;20040;-79
2021/12/04 07:20:10;;;;;;;0.00;0.00;;;4.70;99.90;;;;;;5113933;28;20083;-78
2021/12/04 07:22:36;;;;;;;0.32;0.10;;;4.70;99.90;;;;;;5096520;28;20055;-79
2021/12/04 07:25:05;;;;;;;0.10;0.10;;;4.70;99.90;;;;;;5113553;28;20050;-79
2021/12/04 07:27:31;;;;;;;0.28;0.00;;;4.70;99.90;;;;;;5113154;28;20051;-79
2021/12/04 07:29:57;;;;;;;0.00;0.00;;;4.80;99.90;;;;;;5113406;28;20142;-79
2021/12/04 07:32:25;;;;;;;0.75;0.10;;;4.70;99.90;;;;;;5113435;28;20047;-78
2021/12/04 07:34:51;;;;;;;1.10;0.13;;;4.80;99.90;;;;;;5113062;28;20055;-80
2021/12/04 07:37:16;;;;;;;0.00;0.00;;;4.80;99.90;;;;;;5095841;28;20059;-79
2021/12/04 07:39:42;;;;;;;0.00;0.00;;;4.80;99.90;;;;;;5113740;28;20044;-79
2021/12/04 07:42:08;;;;;;;0.10;0.00;;;4.80;99.90;;;;;;5113429;28;20090;-79
2021/12/04 07:44:33;;;;;;;0.10;0.10;;;4.80;99.90;;;;;;5096326;28;20055;-79
2021/12/04 07:47:00;;;;;;;0.73;0.20;;;4.80;99.90;;;;;;5113133;28;20048;-78
2021/12/04 07:49:26;;;;;;;0.00;0.00;;;4.80;99.90;;;;;;5096816;28;20130;-78
2021/12/04 07:51:52;;;;;;;0.00;0.00;;;4.80;99.90;;;;;;5113299;28;20128;-78
2021/12/04 07:54:18;;;;;;;0.00;0.00;;;4.90;99.90;;;;;;5113367;28;20039;-78
2021/12/04 07:56:44;;;;;;;0.00;0.00;;;4.80;99.90;;;;;;5096660;28;20048;-78
2021/12/04 07:59:10;;;;;;;0.00;0.00;;;4.80;99.90;;;;;;5095788;28;20039;-78
2021/12/04 08:01:36;;;;;;;0.00;0.00;;;4.80;99.90;;;;;;5112912;28;20134;-78
2021/12/04 08:04:02;;;;;;;0.00;0.00;;;4.80;99.90;;;;;;5096333;28;20047;-77
2021/12/04 08:06:28;;;;;;;0.00;0.00;;;4.90;99.90;;;;;;5113264;28;20039;-78
2021/12/04 08:08:58;;;;;;;0.57;0.10;;;4.90;99.90;;;;;;5096131;28;20066;-79
2021/12/04 08:11:27;;;;;;;0.75;0.00;;;4.80;99.90;;;;;;5095821;28;20584;-79
2021/12/04 08:13:54;;;;;;;0.38;0.38;;;4.90;99.90;;;;;;5113164;28;20100;-78
2021/12/04 08:16:24;;;;;;;0.10;0.10;;;4.90;99.90;;;;;;5096273;28;20043;-78
2021/12/04 08:18:51;;;;;;;0.00;0.00;;;4.90;99.90;;;;;;5096302;28;20040;-78
2021/12/04 08:21:17;;;;;;;0.00;0.00;;;4.90;99.90;;;;;;5095940;28;20051;-78
2021/12/04 08:23:42;;;;;;;0.00;0.00;;;4.90;99.90;;;;;;5096025;28;20108;-78
2021/12/04 08:26:08;;;;;;;0.75;0.28;;;4.90;99.90;;;;;;5113454;28;20051;-78
2021/12/04 08:28:35;;;;;;;0.10;0.10;;;4.90;99.90;;;;;;5112877;28;20055;-78
2021/12/04 08:31:01;;;;;;;0.00;0.00;;;4.90;99.90;;;;;;5096472;28;20134;-78
2021/12/04 08:33:26;;;;;;;0.08;0.08;;;4.90;99.90;;;;;;5112737;28;20156;-77
2021/12/04 08:35:52;;;;;;;0.00;0.00;;;4.90;99.90;;;;;;5112982;28;20093;-78
2021/12/04 08:38:18;;;;;;;0.03;0.00;;;4.90;99.90;;;;;;5112915;28;20044;-78
2021/12/04 08:40:44;;;;;;;0.10;0.10;;;4.90;99.90;;;;;;5112116;28;20059;-79
2021/12/04 08:43:10;;;;;;;0.80;0.05;;;4.90;99.90;;;;;;5112740;28;20082;-80
2021/12/04 08:45:37;;;;;;;0.00;0.00;;;4.90;99.90;;;;;;5112353;28;20108;-79
2021/12/04 08:48:04;;;;;;;0.08;0.08;;;4.90;99.90;;;;;;5104781;28;20094;-79
2021/12/04 08:50:32;;;;;;;0.03;0.00;;;4.90;99.90;;;;;;5082148;28;20060;-80
2021/12/04 08:52:59;;;;;;;0.00;0.00;;;4.90;99.90;;;;;;5101825;28;20543;-79
2021/12/04 08:55:26;;;;;;;0.00;0.00;;;5.00;99.90;;;;;;5081017;28;20047;-78
2021/12/04 08:57:53;;;;;;;0.10;0.10;;;4.90;99.90;;;;;;5096058;28;20036;-79
2021/12/04 09:00:27;;;;;;;0.30;0.30;;;4.90;99.90;;;;;;5092178;28;20048;-79
2021/12/04 09:02:54;;;;;;;0.20;0.10;;;5.00;99.90;;;;;;5078503;28;20094;-79
2021/12/04 09:05:21;;;;;;;0.32;0.20;;;4.90;99.90;;;;;;5095816;28;20044;-79
2021/12/04 09:07:48;;;;;;;0.00;0.00;;;4.90;99.90;;;;;;5078862;28;20264;-79
2021/12/04 09:10:15;;;;;;;0.00;0.00;;;5.00;99.90;;;;;;5078896;28;20055;-79
2021/12/04 09:12:41;;;;;;;0.10;0.03;;;5.00;99.90;;;;;;5095372;28;20495;-79
2021/12/04 09:15:10;;;;;;;0.10;0.10;;;5.00;99.90;;;;;;5078763;28;20056;-79
2021/12/04 09:17:36;;;;;;;0.05;0.05;;;4.90;99.90;;;;;;5095586;28;20036;-78
2021/12/04 09:20:05;;;;;;;0.25;0.25;;;4.90;99.90;;;;;;5078666;28;20056;-78
2021/12/04 09:22:33;;;;;;;0.15;0.10;;;4.90;99.90;;;;;;5095883;28;20047;-78
2021/12/04 09:25:00;;;;;;;0.10;0.00;;;4.90;99.90;;;;;;5095659;28;20098;-78
2021/12/04 10:03:35;;;;;;;0.75;0.35;;;5.20;99.90;;;;;;5057420;28;20143;-80
2021/12/04 10:06:26;;;;;;;0.13;0.10;;;5.20;99.90;;;;;;5065386;28;20047;-80
2021/12/04 10:14:59;;;;;;;0.00;0.00;;;5.30;99.90;;;;;;5114927;28;20398;-80
2021/12/04 10:20:11;;;;;;;0.20;0.05;;;5.20;99.90;;;;;;5112238;28;20423;-80
2021/12/04 10:22:57;;;;;;;0.32;0.32;;;5.20;99.90;;;;;;5095623;28;20097;-80
2021/12/04 10:33:51;;;;;;;0.10;0.10;;;5.40;99.90;;;;;;5094511;28;20056;-79
2021/12/04 10:36:32;;;;;;;0.93;0.80;;;5.40;99.90;;;;;;5077931;28;20044;-79
2021/12/04 10:38:59;;;;;;;0.82;0.38;;;5.40;99.90;;;;;;5093525;28;20044;-80
2021/12/04 10:41:31;;;;;;;0.10;0.08;;;5.30;99.90;;;;;;5094230;28;20044;-79
2021/12/04 10:44:16;;;;;;;0.95;0.65;;;5.30;99.90;;;;;;5094216;28;20035;-79
2021/12/04 10:47:04;;;;;;;1.45;0.75;;;5.40;99.90;;;;;;5077191;28;20048;-79
2021/12/04 10:49:47;;;;;;;0.10;0.10;;;5.30;99.90;;;;;;5077654;28;20044;-79
2021/12/04 10:52:19;;;;;;;0.57;0.57;;;5.40;99.90;;;;;;5094749;28;20052;-79
2021/12/04 10:54:50;;;;;;;0.52;0.20;;;5.40;99.90;;;;;;5077089;28;20047;-79
2021/12/04 11:00:32;;;;;;;0.30;0.30;;;5.50;99.90;;;;;;5036698;28;20044;-80
2021/12/04 11:03:05;;;;;;;0.20;0.03;;;5.50;99.90;;;;;;5020569;28;20150;-79
2021/12/04 11:22:33;;;;;;;0.05;0.00;;;5.40;99.90;;;;;;5016514;28;20049;-80
2021/12/04 11:41:31;;;;;;;0.35;0.35;;;5.50;99.90;;;;;;5055422;28;20048;-79
2021/12/04 11:43:54;;;;;;;0.70;0.63;;;5.40;99.90;;;;;;5054416;28;20064;-79
2021/12/04 11:46:27;;;;;;;0.45;0.38;;;5.40;99.90;;;;;;5054588;28;20555;-79
2021/12/04 11:48:56;;;;;;;0.73;0.73;;;5.40;99.90;;;;;;5055486;28;20114;-79
2021/12/04 11:51:24;;;;;;;4.38;1.95;;;5.40;99.90;;;;;;5055447;28;20115;-80
2021/12/04 11:53:52;;;;;;;1.70;1.00;;;5.40;99.90;;;;;;5061986;28;20048;-83
2021/12/04 11:56:26;;;;;;;0.93;0.43;;;5.40;99.90;;;;;;5076458;28;20055;-79
2021/12/04 11:58:52;;;;;;;0.43;0.43;;;5.50;99.90;;;;;;5095886;28;20039;-79
2021/12/04 12:01:30;;;;;;;0.60;0.60;;;5.50;99.90;;;;;;5113118;28;20050;-79
2021/12/04 12:04:07;;;;;;;0.75;0.52;;;5.60;99.90;;;;;;5113739;28;20048;-79
2021/12/04 12:06:42;;;;;;;0.98;0.75;;;5.60;99.90;;;;;;5113050;28;20055;-79
2021/12/04 12:09:19;;;;;;;2.35;0.50;;;5.70;99.90;;;;;;5113174;28;20130;-79
2021/12/04 12:11:53;;;;;;;1.67;1.08;;;5.70;99.90;;;;;;5096544;28;20056;-79
2021/12/04 12:14:37;;;;;;;1.38;1.27;;;5.80;99.90;;;;;;5096597;28;20048;-79
2021/12/04 12:17:03;;;;;;;1.27;1.17;;;5.70;99.90;;;;;;5095779;28;20146;-79
2021/12/04 12:19:37;;;;;;;1.23;0.73;;;5.70;99.90;;;;;;5095339;28;20048;-79
2021/12/04 12:22:10;;;;;;;0.68;0.47;;;5.70;99.90;;;;;;5096175;28;20050;-79
2021/12/04 12:33:08;;;;;;;0.50;0.50;;;5.50;99.90;;;;;;5116171;28;20043;-79
2021/12/04 12:38:34;;;;;;;2.85;0.75;;;5.40;99.90;;;;;;5120237;27;20053;-80
2021/12/04 12:41:22;;;;;;;2.45;0.77;;;5.50;99.90;;;;;;5103961;27;20058;-79
2021/12/04 12:43:52;;;;;;;1.23;0.88;;;5.40;99.90;;;;;;5120837;27;20054;-79
2021/12/04 12:46:18;;;;;;;0.45;0.38;;;5.40;99.90;;;;;;5102758;27;20062;-79
2021/12/04 12:48:53;;;;;;;0.82;0.20;;;5.40;99.90;;;;;;5129070;27;20047;-79
2021/12/04 12:51:51;;;;;;;2.08;1.75;;;5.40;99.90;;;;;;5120553;27;20134;-79
2021/12/04 12:54:24;;;;;;;1.77;0.57;;;5.50;99.90;;;;;;5119722;27;20490;-79
2021/12/04 12:56:59;;;;;;;1.45;0.70;;;5.50;99.90;;;;;;5103904;27;20043;-79
2021/12/04 12:59:41;;;;;;;;;;;5.50;99.90;;;;;;5120853;27;20104;-79
2021/12/04 13:13:24;;;;;;;2.22;0.55;;;5.50;99.90;;;;;;5054866;28;20049;-79
2021/12/04 13:15:50;;;;;;;0.60;0.50;;;5.50;99.90;;;;;;5038310;28;20049;-79
2021/12/04 13:18:21;;;;;;;0.63;0.13;;;5.50;99.90;;;;;;5036693;28;20056;-79
2021/12/04 13:20:48;;;;;;;1.35;1.25;;;5.50;99.90;;;;;;5020712;28;20071;-79
2021/12/04 13:23:17;;;;;;;0.30;0.30;;;5.50;99.90;;;;;;5054509;28;20053;-79
2021/12/04 13:25:51;;;;;;;3.33;0.10;;;5.50;99.90;;;;;;5020886;28;20053;-79
2021/12/04 13:28:20;;;;;;;0.68;0.68;;;5.50;99.90;;;;;;5037603;28;20053;-79
2021/12/04 13:30:46;;;;;;;0.73;0.50;;;5.60;99.90;;;;;;5038185;28;20057;-78
2021/12/04 13:33:12;;;;;;;1.25;1.15;;;5.60;99.90;;;;;;5054654;28;20128;-79
2021/12/04 13:35:37;;;;;;;0.35;0.32;;;5.60;99.90;;;;;;5038373;28;20060;-79
2021/12/04 13:38:05;;;;;;;0.10;0.10;;;5.60;99.90;;;;;;5020494;28;20044;-79
2021/12/04 13:40:30;;;;;;;1.92;1.70;;;5.60;99.90;;;;;;5038389;28;20053;-79
2021/12/04 13:42:56;;;;;;;0.30;0.20;;;5.70;99.90;;;;;;5076647;28;20494;-80
2021/12/04 13:45:22;;;;;;;5.43;1.27;;;5.70;99.90;;;;;;5099219;28;20051;-79
2021/12/04 13:47:57;;;;;;;0.28;0.10;;;5.70;99.90;;;;;;5085765;27;20038;-80
2021/12/04 13:52:56;;;;;;;0.47;0.15;;;5.60;99.90;;;;;;5119291;27;20047;-79
2021/12/04 13:55:23;;;;;;;0.05;0.05;;;5.70;99.90;;;;;;5118584;27;20487;-79
2021/12/04 13:57:50;;;;;;;4.95;1.30;;;5.60;99.90;;;;;;5101839;27;20039;-78
2021/12/04 14:00:17;;;;;;;3.03;1.08;;;5.70;99.90;;;;;;5118595;27;20047;-79
2021/12/04 14:02:43;;;;;;;0.10;0.10;;;5.70;99.90;;;;;;5118154;27;20513;-78
2021/12/04 14:05:18;;;;;;;0.65;0.52;;;5.70;99.90;;;;;;5117090;27;20047;-81
2021/12/04 14:07:47;;;;;;;0.47;0.22;;;5.70;99.90;;;;;;5099935;27;20114;-81
2021/12/04 14:10:22;;;;;;;1.35;1.20;;;5.70;99.90;;;;;;5117444;27;20043;-79
2021/12/04 14:12:49;;;;;;;4.82;1.05;;;5.70;99.90;;;;;;5115181;27;20039;-81
2021/12/04 14:15:18;;;;;;;0.10;0.10;;;5.70;99.90;;;;;;5100195;27;20098;-79
2021/12/04 14:17:44;;;;;;;0.50;0.25;;;5.70;99.90;;;;;;5099750;27;20093;-81
2021/12/04 14:20:17;;;;;;;0.28;0.28;;;5.60;99.90;;;;;;5117286;27;20063;-82
2021/12/04 14:22:48;;;;;;;0.28;0.00;;;5.70;99.90;;;;;;5115018;27;20039;-78
2021/12/04 14:25:16;;;;;;;0.00;0.00;;;5.60;99.90;;;;;;5099455;27;20067;-80
2021/12/04 14:27:42;;;;;;;0.08;0.08;;;5.60;99.90;;;;;;5099510;27;20035;-79
2021/12/04 14:30:21;;;;;;;11.52;0.88;;;5.60;99.90;;;;;;5099672;27;20050;-79
2021/12/04 14:32:53;;;;;;;0.22;0.22;;;5.60;99.90;;;;;;5098146;27;20063;-80
2021/12/04 14:35:23;;;;;;;0.30;0.20;;;5.60;99.90;;;;;;5097549;27;20039;-80
2021/12/04 14:37:54;;;;;;;0.10;0.10;;;5.60;99.90;;;;;;5116426;27;20050;-81
2021/12/04 14:40:41;;;;;;;0.28;0.28;;;5.70;99.90;;;;;;5097531;27;20047;-81
2021/12/04 14:43:09;;;;;;;0.03;0.03;;;5.60;99.90;;;;;;5116008;27;20053;-80
2021/12/04 14:45:38;;;;;;;0.68;0.40;;;5.60;99.90;;;;;;5115787;27;20039;-80
2021/12/04 14:48:25;;;;;;;0.13;0.13;;;5.60;99.90;;;;;;5117872;27;20573;-79
2021/12/04 14:50:58;;;;;;;0.30;0.30;;;5.60;99.90;;;;;;5100582;27;20119;-79
2021/12/04 14:53:24;;;;;;;0.00;0.00;;;5.60;99.90;;;;;;5118251;27;20068;-80
2021/12/04 14:55:51;;;;;;;2.47;0.15;;;5.60;99.90;;;;;;5100761;27;20064;-78
2021/12/04 14:58:21;;;;;;;0.10;0.10;;;5.60;99.90;;;;;;5118189;27;20069;-78
2021/12/04 15:00:58;;;;;;;0.65;0.20;;;5.60;99.90;;;;;;5099777;27;20142;-77
2021/12/04 15:03:32;;;;;;;2.67;0.63;;;5.60;99.90;;;;;;5100951;27;20043;-80
2021/12/04 15:06:00;;;;;;;7.03;0.10;;;5.60;99.90;;;;;;5100782;27;20079;-78
2021/12/04 15:08:32;;;;;;;0.40;0.20;;;5.60;99.90;;;;;;5117841;27;20051;-78
2021/12/04 15:11:21;;;;;;;0.63;0.45;;;5.60;99.90;;;;;;5100698;27;20130;-78
2021/12/04 15:13:56;;;;;;;9.68;0.40;;;5.70;99.90;;;;;;5117868;27;20042;-78
2021/12/04 15:16:33;;;;;;;;;;;5.60;99.90;;;;;;5100932;27;20043;-78
2021/12/04 15:19:11;;;;;;;1.10;0.55;;;5.70;99.90;;;;;;5117248;27;19920;-78
2021/12/04 15:21:49;;;;;;;0.05;0.05;;;5.60;99.90;;;;;;5117576;27;20047;-78
2021/12/04 15:24:22;;;;;;;1.00;0.40;;;5.60;99.90;;;;;;5117330;27;20046;-78
2021/12/04 15:26:51;;;;;;;0.60;0.50;;;5.70;99.90;;;;;;5101096;27;20047;-78
2021/12/04 15:29:22;;;;;;;1.63;0.17;;;5.60;99.90;;;;;;5116633;27;20103;-79
2021/12/04 15:31:50;;;;;;;0.20;0.15;;;5.70;99.90;;;;;;5094089;28;20181;-78
2021/12/04 15:34:16;;;;;;;0.30;0.30;;;5.70;99.90;;;;;;5080304;28;20058;-78
2021/12/04 15:36:46;;;;;;;2.28;0.55;;;5.60;99.90;;;;;;5097370;28;20036;-78
2021/12/04 15:39:30;;;;;;;1.05;0.88;;;5.60;99.90;;;;;;5080092;28;20139;-78
2021/12/04 15:47:49;;;;;;;0.88;0.68;;;5.60;99.90;;;;;;5105518;27;20054;-79
2021/12/04 15:53:01;;;;;;;1.27;1.17;;;5.60;99.90;;;;;;5115075;28;20412;-79
2021/12/04 15:55:40;;;;;;;0.00;0.00;;;5.60;99.90;;;;;;5113992;27;20082;-79
2021/12/04 15:58:19;;;;;;;0.03;0.03;;;5.70;99.90;;;;;;5113245;28;20035;-80
2021/12/04 16:00:53;;;;;;;0.57;0.35;;;5.70;99.90;;;;;;5096706;27;20043;-79
2021/12/04 16:03:24;;;;;;;0.10;0.10;;;5.70;99.90;;;;;;5115623;28;20462;-79
2021/12/04 16:05:56;;;;;;;0.80;0.43;;;5.60;99.90;;;;;;5099256;28;20378;-80
2021/12/04 16:08:24;;;;;;;0.63;0.63;;;5.60;99.90;;;;;;5116619;28;20051;-80
2021/12/04 16:10:51;;;;;;;0.40;0.30;;;5.60;99.90;;;;;;5101039;27;20055;-82
2021/12/04 16:13:26;;;;;;;0.10;0.08;;;5.50;99.90;;;;;;5103593;27;20456;-81
2021/12/04 16:15:54;;;;;;;0.00;0.00;;;5.60;99.90;;;;;;5103889;27;20047;-81